Time;durP1;ratioP1;P1;durP2;ratioP2;P2;SDS_P1;SDS_P2;PMS_P1;PMS_P2;Temp;Humidity;BMP_temperature;BMP_pressure;BME280_temperature;BME280_humidity;BME280_pressure;Samples;Min_cycle;Max_cycle;Signal;HPM_P1;HPM_P2
2023/06/28 00:02:02;;;;;;;;;;;13.60;77.60;;;;;;5120906;27;20025;-89
2023/06/28 00:04:27;;;;;;;;;;;13.60;77.80;;;;;;5099985;27;19955;-90
2023/06/28 00:06:53;;;;;;;;;;;13.60;77.70;;;;;;5089926;27;19926;-91
2023/06/28 00:09:19;;;;;;;;;;;13.60;77.70;;;;;;5094632;27;19923;-90
2023/06/28 00:11:47;;;;;;;;;;;13.60;77.80;;;;;;5109911;27;19923;-91
2023/06/28 00:14:15;;;;;;;;;;;13.60;77.80;;;;;;5083105;28;19923;-90
2023/06/28 00:16:41;;;;;;;;;;;13.60;77.60;;;;;;5090735;28;19939;-91
2023/06/28 00:19:07;;;;;;;;;;;13.60;77.70;;;;;;5085772;28;20010;-90
2023/06/28 00:21:33;;;;;;;;;;;13.60;77.60;;;;;;5090762;28;20370;-90
2023/06/28 00:24:00;;;;;;;;;;;13.60;77.60;;;;;;5095777;28;20359;-90
2023/06/28 00:26:26;;;;;;;;;;;13.60;77.60;;;;;;5076636;28;19931;-90
2023/06/28 00:28:52;;;;;;;;;;;13.60;77.70;;;;;;5068854;28;19954;-90
2023/06/28 00:31:17;;;;;;;;;;;13.60;77.60;;;;;;5088697;28;20507;-90
2023/06/28 00:33:43;;;;;;;;;;;13.60;77.60;;;;;;5091449;28;19932;-90
2023/06/28 00:36:08;;;;;;;;;;;13.60;77.60;;;;;;5085193;28;19928;-90
2023/06/28 00:38:37;;;;;;;;;;;13.60;77.60;;;;;;5087485;28;20011;-90
2023/06/28 00:41:03;;;;;;;;;;;13.60;77.40;;;;;;5093204;28;19928;-90
2023/06/28 00:43:29;;;;;;;;;;;13.60;77.60;;;;;;5089021;28;19976;-90
2023/06/28 00:45:54;;;;;;;;;;;13.60;77.70;;;;;;5092888;28;19932;-91
2023/06/28 00:48:20;;;;;;;;;;;13.60;77.60;;;;;;5068776;28;20485;-91
2023/06/28 00:50:46;;;;;;;;;;;13.60;77.90;;;;;;5096323;28;20385;-91
2023/06/28 00:53:14;;;;;;;;;;;13.60;77.80;;;;;;5090711;28;19927;-90
2023/06/28 00:55:40;;;;;;;;;;;13.50;77.70;;;;;;5093776;28;19924;-90
2023/06/28 00:58:05;;;;;;;;;;;13.60;77.80;;;;;;5095301;28;19930;-89
2023/06/28 01:00:31;;;;;;;;;;;13.50;77.70;;;;;;5094196;28;19927;-90
2023/06/28 01:02:57;;;;;;;;;;;13.50;77.70;;;;;;5085396;28;19963;-89
2023/06/28 01:05:23;;;;;;;;;;;13.50;77.90;;;;;;5090461;28;19923;-90
2023/06/28 01:07:49;;;;;;;;;;;13.50;78.00;;;;;;5085313;28;20002;-89
2023/06/28 01:10:17;;;;;;;;;;;13.50;77.90;;;;;;5081028;27;20148;-90
2023/06/28 01:12:43;;;;;;;;;;;13.50;77.80;;;;;;5103651;28;19936;-90
2023/06/28 01:15:09;;;;;;;;;;;13.50;78.00;;;;;;5096481;28;19946;-89
2023/06/28 01:17:35;;;;;;;;;;;13.50;78.20;;;;;;5105832;28;19924;-90
2023/06/28 01:20:01;;;;;;;;;;;13.50;78.10;;;;;;5096648;28;19930;-89
2023/06/28 01:22:27;;;;;;;;;;;13.50;78.10;;;;;;5069354;27;19953;-90
2023/06/28 01:24:56;;;;;;;;;;;13.50;78.00;;;;;;5098772;27;19924;-89
2023/06/28 01:27:22;;;;;;;;;;;13.50;78.20;;;;;;5101083;28;20046;-89
2023/06/28 01:29:56;;;;;;;;;;;13.50;78.20;;;;;;5096092;28;20376;-89
2023/06/28 01:32:22;;;;;;;;;;;13.50;78.00;;;;;;5112148;27;19924;-90
2023/06/28 01:34:47;;;;;;;;;;;13.50;78.10;;;;;;5088233;28;20022;-89
2023/06/28 01:37:13;;;;;;;;;;;13.40;78.20;;;;;;5088116;28;19924;-90
2023/06/28 01:39:39;;;;;;;;;;;13.40;78.10;;;;;;5104130;28;19963;-89
2023/06/28 01:42:05;;;;;;;;;;;13.30;78.00;;;;;;5108354;28;19924;-90
2023/06/28 01:44:31;;;;;;;;;;;13.30;78.20;;;;;;5096243;28;20378;-90
2023/06/28 01:46:57;;;;;;;;;;;13.30;78.40;;;;;;5089142;28;19986;-90
2023/06/28 01:49:25;;;;;;;;;;;13.30;78.30;;;;;;5077576;28;19930;-89
2023/06/28 01:51:52;;;;;;;;;;;13.30;78.40;;;;;;5096437;28;19924;-89
2023/06/28 01:54:18;;;;;;;;;;;13.30;78.40;;;;;;5094826;28;19930;-89
2023/06/28 01:56:43;;;;;;;;;;;13.30;78.50;;;;;;5090456;28;19919;-89
2023/06/28 01:59:09;;;;;;;;;;;13.20;78.50;;;;;;5093078;28;19931;-89
2023/06/28 02:01:35;;;;;;;;;;;13.20;78.30;;;;;;5095756;28;19924;-89
2023/06/28 02:04:00;;;;;;;;;;;13.20;78.70;;;;;;5094859;28;19924;-90
2023/06/28 02:06:26;;;;;;;;;;;13.10;79.00;;;;;;5074883;28;19920;-90
2023/06/28 02:08:52;;;;;;;;;;;13.10;79.00;;;;;;5091866;28;20363;-89
2023/06/28 02:11:17;;;;;;;;;;;13.10;79.10;;;;;;5098295;28;20006;-90
2023/06/28 02:13:43;;;;;;;;;;;13.10;79.20;;;;;;5094477;28;19930;-89
2023/06/28 02:16:09;;;;;;;;;;;13.10;79.00;;;;;;5111716;28;19931;-89
2023/06/28 02:18:34;;;;;;;;;;;13.10;78.90;;;;;;5085720;28;19947;-88
2023/06/28 02:21:00;;;;;;;;;;;13.10;79.10;;;;;;5095408;28;19970;-89
2023/06/28 02:23:26;;;;;;;;;;;13.10;79.00;;;;;;5094288;28;19927;-89
2023/06/28 02:25:51;;;;;;;;;;;13.10;79.10;;;;;;5095618;28;19934;-89
2023/06/28 02:28:19;;;;;;;;;;;13.20;79.10;;;;;;5087357;28;19930;-90
2023/06/28 02:30:45;;;;;;;;;;;13.20;79.30;;;;;;5094994;28;19931;-89
2023/06/28 02:33:11;;;;;;;;;;;13.20;79.30;;;;;;5110394;28;19924;-89
2023/06/28 02:35:36;;;;;;;;;;;13.30;79.10;;;;;;5077977;28;19973;-90
2023/06/28 02:38:02;;;;;;;;;;;13.30;79.10;;;;;;5069530;28;19939;-88
2023/06/28 02:40:28;;;;;;;;;;;13.30;79.10;;;;;;5076245;28;19924;-89
2023/06/28 02:42:53;;;;;;;;;;;13.30;79.10;;;;;;5106549;27;19983;-89
2023/06/28 02:45:19;;;;;;;;;;;13.30;79.10;;;;;;5097775;28;19988;-89
2023/06/28 02:47:45;;;;;;;;;;;13.30;79.00;;;;;;5087070;28;19963;-90
2023/06/28 02:50:10;;;;;;;;;;;13.30;79.10;;;;;;5094873;28;19970;-89
2023/06/28 02:52:36;;;;;;;;;;;13.30;78.90;;;;;;5093220;28;19931;-89
2023/06/28 02:55:02;;;;;;;;;;;13.30;79.00;;;;;;5094760;28;19934;-90
2023/06/28 02:57:27;;;;;;;;;;;13.30;79.00;;;;;;5087083;28;19932;-89
2023/06/28 02:59:53;;;;;;;;;;;13.30;79.00;;;;;;5095024;28;19924;-89
2023/06/28 03:02:19;;;;;;;;;;;13.30;79.10;;;;;;5095700;27;20397;-89
2023/06/28 03:04:44;;;;;;;;;;;13.30;79.10;;;;;;5068016;28;19931;-89
2023/06/28 03:07:19;;;;;;;;;;;13.20;79.10;;;;;;5086978;28;20303;-89
2023/06/28 03:09:44;;;;;;;;;;;13.20;79.20;;;;;;5094799;28;19924;-89
2023/06/28 03:12:10;;;;;;;;;;;13.20;79.20;;;;;;5093436;28;20416;-89
2023/06/28 03:14:36;;;;;;;;;;;13.20;79.30;;;;;;5094564;28;19931;-89
2023/06/28 03:17:02;;;;;;;;;;;13.30;79.30;;;;;;5087341;28;19927;-90
2023/06/28 03:19:27;;;;;;;;;;;13.30;79.20;;;;;;5106047;27;19927;-89
2023/06/28 03:21:53;;;;;;;;;;;13.30;79.30;;;;;;5091840;28;19924;-89
2023/06/28 03:24:19;;;;;;;;;;;13.30;79.30;;;;;;5093187;28;20023;-87
2023/06/28 03:26:44;;;;;;;;;;;13.30;79.20;;;;;;5088273;28;20006;-90
2023/06/28 03:29:10;;;;;;;;;;;13.30;79.30;;;;;;5092027;28;19930;-89
2023/06/28 03:31:36;;;;;;;;;;;13.30;79.40;;;;;;5097848;27;19957;-90
2023/06/28 03:34:01;;;;;;;;;;;13.30;79.40;;;;;;5073776;28;19931;-90
2023/06/28 03:36:31;;;;;;;;;;;13.30;79.40;;;;;;5092364;28;19920;-90
2023/06/28 03:38:57;;;;;;;;;;;13.40;79.50;;;;;;5108560;28;19931;-89
2023/06/28 03:41:24;;;;;;;;;;;13.40;79.50;;;;;;5064322;27;20018;-89
2023/06/28 03:43:50;;;;;;;;;;;13.40;79.50;;;;;;5093493;28;19928;-89
2023/06/28 03:46:15;;;;;;;;;;;13.40;79.40;;;;;;5109211;28;20022;-90
2023/06/28 03:48:41;;;;;;;;;;;13.50;79.50;;;;;;5088000;28;19934;-89
2023/06/28 03:51:07;;;;;;;;;;;13.50;79.70;;;;;;5093820;28;19970;-90
2023/06/28 03:53:32;;;;;;;;;;;13.50;79.80;;;;;;5092545;28;19928;-88
2023/06/28 03:55:58;;;;;;;;;;;13.50;79.70;;;;;;5093878;28;19924;-89
2023/06/28 03:58:24;;;;;;;;;;;13.50;80.00;;;;;;5085595;28;20045;-89
2023/06/28 04:00:49;;;;;;;;;;;13.50;80.00;;;;;;5094099;28;19924;-89
2023/06/28 04:03:15;;;;;;;;;;;13.50;80.20;;;;;;5091995;28;19931;-89
2023/06/28 04:05:41;;;;;;;;;;;13.50;80.20;;;;;;5089831;28;20287;-90
2023/06/28 04:08:08;;;;;;;;;;;13.50;80.30;;;;;;5078464;28;19977;-90
2023/06/28 04:10:35;;;;;;;;;;;13.50;80.50;;;;;;5090422;28;20032;-89
2023/06/28 04:13:01;;;;;;;;;;;13.50;80.50;;;;;;5089258;28;19928;-89
2023/06/28 04:15:27;;;;;;;;;;;13.50;80.50;;;;;;5087979;28;19927;-89
2023/06/28 04:17:52;;;;;;;;;;;13.60;80.40;;;;;;5080382;28;19928;-89
2023/06/28 04:20:18;;;;;;;;;;;13.50;80.30;;;;;;5098602;28;19928;-89
2023/06/28 04:22:45;;;;;;;;;;;13.60;80.50;;;;;;5075213;28;19924;-89
2023/06/28 04:25:11;;;;;;;;;;;13.60;80.70;;;;;;5093589;28;19969;-89
2023/06/28 04:27:36;;;;;;;;;;;13.60;80.70;;;;;;5085681;28;19923;-89
2023/06/28 04:30:03;;;;;;;;;;;13.60;81.00;;;;;;5093791;28;20375;-89
2023/06/28 04:32:31;;;;;;;;;;;13.50;81.10;;;;;;5092343;28;19924;-89
2023/06/28 04:34:59;;;;;;;;;;;13.50;81.10;;;;;;5085273;28;19924;-89
2023/06/28 04:37:28;;;;;;;;;;;13.50;81.30;;;;;;5084584;28;20450;-90
2023/06/28 04:39:54;;;;;;;;;;;13.50;81.30;;;;;;5092799;28;19924;-89
2023/06/28 04:42:20;;;;;;;;;;;13.50;81.30;;;;;;5091617;28;19928;-88
2023/06/28 04:44:49;;;;;;;;;;;13.50;81.50;;;;;;5078040;28;20268;-89
2023/06/28 04:47:16;;;;;;;;;;;13.50;81.50;;;;;;5102613;28;19927;-88
2023/06/28 04:49:48;;;;;;;;;;;13.50;81.50;;;;;;5079294;28;19973;-89
2023/06/28 04:52:15;;;;;;;;;;;13.60;81.40;;;;;;5103785;28;20794;-90
2023/06/28 04:54:43;;;;;;;;;;;13.60;81.10;;;;;;5076149;28;19967;-88
2023/06/28 04:57:09;;;;;;;;;;;13.60;81.20;;;;;;5083720;28;19967;-89
2023/06/28 04:59:34;;;;;;;;;;;13.60;81.10;;;;;;5076855;28;19928;-89
2023/06/28 05:02:05;;;;;;;;;;;13.60;81.00;;;;;;5090046;28;20015;-89
2023/06/28 05:04:33;;;;;;;;;;;13.70;81.10;;;;;;5094880;28;20393;-89
2023/06/28 05:07:06;;;;;;;;;;;13.70;81.20;;;;;;5090718;28;19931;-89
2023/06/28 05:09:32;;;;;;;;;;;13.70;81.00;;;;;;5093322;28;19927;-88
2023/06/28 05:11:58;;;;;;;;;;;13.70;80.90;;;;;;5092476;28;20041;-88
2023/06/28 05:14:25;;;;;;;;;;;13.70;81.10;;;;;;5092444;28;20052;-89
2023/06/28 05:16:56;;;;;;;;;;;13.80;81.10;;;;;;5103968;28;19973;-89
2023/06/28 05:19:22;;;;;;;;;;;13.90;81.20;;;;;;5107761;28;19927;-89
2023/06/28 05:21:47;;;;;;;;;;;13.90;81.30;;;;;;5112775;28;20379;-89
2023/06/28 05:24:15;;;;;;;;;;;13.90;80.80;;;;;;5095198;28;19932;-89
2023/06/28 05:26:40;;;;;;;;;;;13.90;80.70;;;;;;5091558;28;19920;-90
2023/06/28 05:29:06;;;;;;;;;;;13.90;81.10;;;;;;5093602;28;19946;-89
2023/06/28 05:31:32;;;;;;;;;;;13.90;81.20;;;;;;5096254;28;19928;-89
2023/06/28 05:33:57;;;;;;;;;;;14.00;81.20;;;;;;5078138;28;19950;-89
2023/06/28 05:36:23;;;;;;;;;;;14.00;81.40;;;;;;5078595;27;19939;-89
2023/06/28 05:38:49;;;;;;;;;;;14.10;81.10;;;;;;5093427;28;20283;-89
2023/06/28 05:41:15;;;;;;;;;;;14.10;81.10;;;;;;5094793;28;19928;-89
2023/06/28 05:43:42;;;;;;;;;;;14.10;81.00;;;;;;5094648;28;19931;-89
2023/06/28 05:46:07;;;;;;;;;;;14.20;81.00;;;;;;5095504;28;20438;-90
2023/06/28 05:48:33;;;;;;;;;;;14.20;81.00;;;;;;5081030;28;19931;-89
2023/06/28 05:50:59;;;;;;;;;;;14.20;81.00;;;;;;5078557;28;19924;-88
2023/06/28 05:53:29;;;;;;;;;;;14.30;80.90;;;;;;5094426;28;20375;-90
2023/06/28 05:55:55;;;;;;;;;;;14.30;80.80;;;;;;5112655;28;19969;-90
2023/06/28 05:58:20;;;;;;;;;;;14.40;80.50;;;;;;5085970;28;19928;-89
2023/06/28 06:00:46;;;;;;;;;;;14.40;80.50;;;;;;5077974;28;19923;-89
2023/06/28 06:03:12;;;;;;;;;;;14.40;80.70;;;;;;5073751;28;19935;-89
2023/06/28 06:05:37;;;;;;;;;;;14.50;80.60;;;;;;5078325;28;19924;-88
2023/06/28 06:08:04;;;;;;;;;;;14.50;80.60;;;;;;5071284;28;20048;-90
2023/06/28 06:10:30;;;;;;;;;;;14.50;80.90;;;;;;5096907;27;19924;-89
2023/06/28 06:12:55;;;;;;;;;;;14.50;81.20;;;;;;5094517;28;19931;-89
2023/06/28 06:15:21;;;;;;;;;;;14.50;81.20;;;;;;5098821;27;19923;-90
2023/06/28 06:17:47;;;;;;;;;;;14.60;81.00;;;;;;5094648;28;19923;-88
2023/06/28 06:20:16;;;;;;;;;;;14.60;81.00;;;;;;5088187;28;19924;-89
2023/06/28 06:22:44;;;;;;;;;;;14.60;81.00;;;;;;5093521;28;19927;-89
2023/06/28 06:25:09;;;;;;;;;;;14.60;81.10;;;;;;5095513;28;19924;-90
2023/06/28 06:27:38;;;;;;;;;;;14.60;81.10;;;;;;5087107;28;20367;-90
2023/06/28 06:30:06;;;;;;;;;;;14.60;81.30;;;;;;5096212;28;19930;-90
2023/06/28 06:32:32;;;;;;;;;;;14.60;80.60;;;;;;5106282;27;19929;-89
2023/06/28 06:34:58;;;;;;;;;;;14.60;80.50;;;;;;5093721;28;20026;-91
2023/06/28 06:37:36;;;;;;;;;;;14.60;80.80;;;;;;5059267;28;19924;-93
2023/06/28 06:40:08;;;;;;;;;;;14.60;80.90;;;;;;5091736;28;19985;-92
2023/06/28 06:42:36;;;;;;;;;;;14.60;81.00;;;;;;5092412;28;19924;-91
2023/06/28 06:45:07;;;;;;;;;;;14.60;80.90;;;;;;5071541;28;19973;-92
2023/06/28 06:47:32;;;;;;;;;;;14.60;80.70;;;;;;5079884;28;20379;-92
2023/06/28 06:49:58;;;;;;;;;;;14.60;81.20;;;;;;5087023;28;19927;-92
2023/06/28 06:52:34;;;;;;;;;;;14.60;80.90;;;;;;5062033;27;20524;-92
2023/06/28 06:54:59;;;;;;;;;;;14.60;81.30;;;;;;5077683;28;20280;-93
2023/06/28 06:57:25;;;;;;;;;;;14.60;81.20;;;;;;5062683;27;19928;-92
2023/06/28 06:59:51;;;;;;;;;;;14.60;81.10;;;;;;5086883;28;19924;-92
2023/06/28 07:02:17;;;;;;;;;;;14.60;81.60;;;;;;5077165;27;19924;-92
2023/06/28 07:04:45;;;;;;;;;;;14.60;81.50;;;;;;5087377;28;19932;-90
2023/06/28 07:07:14;;;;;;;;;;;14.60;81.00;;;;;;5052745;28;19924;-92
2023/06/28 07:09:40;;;;;;;;;;;14.60;81.70;;;;;;5094256;28;20443;-92
2023/06/28 07:12:05;;;;;;;;;;;14.70;81.70;;;;;;5074861;28;20015;-92
2023/06/28 07:14:53;;;;;;;;;;;;;;;;;;;;;
2023/06/28 07:18:12;;;;;;;;;;;14.70;81.80;;;;;;5077086;28;19923;-94
2023/06/28 07:32:06;;;;;;;;;;;14.80;82.30;;;;;;4899358;29;19930;-93
2023/06/28 07:34:54;;;;;;;;;;;;;;;;;;;;;
2023/06/28 07:47:47;;;;;;;;;;;14.80;82.00;;;;;;4828458;29;20042;-93
2023/06/28 07:50:59;;;;;;;;;;;14.80;82.30;;;;;;4829374;29;19936;-94
2023/06/28 08:15:36;;;;;;;;;;;;;;;;;;;;;
2023/06/28 08:18:08;;;;;;;;;;;15.10;82.60;;;;;;4917482;28;19970;-92
2023/06/28 08:20:41;;;;;;;;;;;15.10;82.50;;;;;;4948705;28;19941;-92
2023/06/28 08:23:19;;;;;;;;;;;;;;;;;;;;;
2023/06/28 08:26:19;;;;;;;;;;;;;;;;;;;;;
2023/06/28 08:32:40;;;;;;;;;;;;;;;;;;;;;
2023/06/28 08:39:14;;;;;;;;;;;15.30;82.90;;;;;;4949900;28;19937;-95
2023/06/28 08:42:00;;;;;;;;;;;15.30;82.80;;;;;;4990687;28;19972;-95
2023/06/28 08:44:29;;;;;;;;;;;15.30;82.40;;;;;;5055151;28;19933;-92
2023/06/28 08:46:55;;;;;;;;;;;15.30;82.50;;;;;;5089962;28;19920;-93
2023/06/28 08:49:54;;;;;;;;;;;;;;;;;;;;;
2023/06/28 08:52:53;;;;;;;;;;;15.30;82.40;;;;;;5097179;28;20559;-96
2023/06/28 09:13:21;;;;;;;;;;;;;;;;;;;;;
2023/06/28 10:10:36;;;;;;;;;;;15.60;82.20;;;;;;4839245;29;21650;-92
2023/06/28 10:13:05;;;;;;;;;;;15.70;82.40;;;;;;4811167;29;20716;-93
2023/06/28 10:15:49;;;;;;;;;;;15.70;82.50;;;;;;4851821;29;19941;-92
2023/06/28 10:20:51;;;;;;;;;;;15.80;82.80;;;;;;4948654;23;19935;-93
2023/06/28 10:23:19;;;;;;;;;;;15.80;83.10;;;;;;4851229;29;21323;-92
2023/06/28 10:25:48;;;;;;;;;;;15.80;83.30;;;;;;4865914;29;20564;-94
2023/06/28 10:28:14;;;;;;;;;;;15.90;82.50;;;;;;4818517;29;19935;-93
2023/06/28 10:30:53;;;;;;;;;;;;;;;;;;;;;
2023/06/28 10:33:44;;;;;;;;;;;16.00;82.30;;;;;;4879962;29;19931;-93
2023/06/28 10:36:14;;;;;;;;;;;16.00;82.40;;;;;;4857874;29;19927;-93
2023/06/28 10:38:45;;;;;;;;;;;16.00;82.60;;;;;;4860263;29;19942;-93
2023/06/28 10:41:14;;;;;;;;;;;16.00;82.20;;;;;;4849671;29;19942;-95
2023/06/28 10:44:00;;;;;;;;;;;16.00;82.30;;;;;;4841098;29;20026;-91
2023/06/28 10:46:47;;;;;;;;;;;16.00;82.20;;;;;;4859312;29;19924;-92
2023/06/28 10:49:18;;;;;;;;;;;16.10;82.40;;;;;;4861025;29;20544;-92
2023/06/28 10:52:20;;;;;;;;;;;;;;;;;;;;;
2023/06/28 10:55:26;;;;;;;;;;;16.10;81.60;;;;;;4870982;29;20376;-92
2023/06/28 10:58:30;;;;;;;;;;;16.10;81.90;;;;;;4849343;29;19931;-93
2023/06/28 11:00:55;;;;;;;;;;;16.20;81.50;;;;;;4871897;29;19931;-94
2023/06/28 11:03:23;;;;;;;;;;;16.10;81.50;;;;;;4869038;29;19935;-91
2023/06/28 11:06:00;;;;;;;;;;;16.10;81.90;;;;;;4853356;29;19927;-93
2023/06/28 11:08:38;;;;;;;;;;;16.10;82.00;;;;;;4851724;29;19935;-93
2023/06/28 11:11:21;;;;;;;;;;;16.10;81.60;;;;;;4868245;29;19935;-93
2023/06/28 11:13:53;;;;;;;;;;;16.20;81.90;;;;;;4866789;29;20388;-93
2023/06/28 11:16:20;;;;;;;;;;;16.10;81.60;;;;;;4865842;29;19935;-93
2023/06/28 11:18:47;;;;;;;;;;;16.10;81.50;;;;;;4861814;29;19938;-95
2023/06/28 11:21:15;;;;;;;;;;;16.10;81.70;;;;;;4865488;29;19981;-93
2023/06/28 11:23:47;;;;;;;;;;;16.10;81.80;;;;;;4862683;29;19935;-92
2023/06/28 11:26:18;;;;;;;;;;;16.10;81.80;;;;;;4865215;29;19941;-92
2023/06/28 11:28:50;;;;;;;;;;;16.10;82.10;;;;;;4851035;29;19942;-94
2023/06/28 11:31:24;;;;;;;;;;;16.10;82.00;;;;;;4864927;29;20281;-94
2023/06/28 11:33:58;;;;;;;;;;;16.10;81.90;;;;;;4863558;29;20497;-93
2023/06/28 11:36:25;;;;;;;;;;;16.10;81.80;;;;;;4862361;29;20065;-91
2023/06/28 11:38:50;;;;;;;;;;;16.10;81.90;;;;;;4861872;29;19936;-93
2023/06/28 11:41:16;;;;;;;;;;;16.10;81.80;;;;;;4862323;29;19935;-91
2023/06/28 11:43:47;;;;;;;;;;;16.10;81.90;;;;;;4862797;29;20388;-91
2023/06/28 11:46:19;;;;;;;;;;;16.20;82.30;;;;;;4865037;29;20046;-92
2023/06/28 11:48:52;;;;;;;;;;;16.20;82.40;;;;;;4860833;29;19967;-91
2023/06/28 11:51:17;;;;;;;;;;;16.30;82.40;;;;;;4860198;29;19931;-88
2023/06/28 11:53:49;;;;;;;;;;;16.30;82.30;;;;;;4861821;29;20028;-90
2023/06/28 11:56:15;;;;;;;;;;;16.30;82.20;;;;;;4846045;29;19927;-91
2023/06/28 11:58:46;;;;;;;;;;;16.30;82.10;;;;;;4855531;29;20305;-91
2023/06/28 12:01:21;;;;;;;;;;;16.40;82.20;;;;;;4845512;29;19936;-91
2023/06/28 12:03:47;;;;;;;;;;;16.40;82.30;;;;;;4859701;29;19936;-90
2023/06/28 12:06:13;;;;;;;;;;;16.40;82.30;;;;;;4862190;29;19942;-90
2023/06/28 12:08:40;;;;;;;;;;;16.30;82.20;;;;;;4856823;29;19936;-91
2023/06/28 12:11:15;;;;;;;;;;;16.30;82.30;;;;;;4859910;29;19975;-90
2023/06/28 12:13:41;;;;;;;;;;;16.30;82.50;;;;;;4879856;29;20043;-93
2023/06/28 12:16:12;;;;;;;;;;;16.30;82.60;;;;;;4862491;29;19938;-92
2023/06/28 12:18:57;;;;;;;;;;;16.40;82.90;;;;;;4856087;29;19936;-93
2023/06/28 12:21:23;;;;;;;;;;;16.40;83.00;;;;;;4861279;29;19942;-90
2023/06/28 12:23:49;;;;;;;;;;;16.40;82.90;;;;;;4858718;29;19967;-91
2023/06/28 12:26:15;;;;;;;;;;;16.40;83.10;;;;;;4862149;29;19991;-91
2023/06/28 12:28:47;;;;;;;;;;;16.40;83.10;;;;;;4856981;29;19971;-91
2023/06/28 12:31:13;;;;;;;;;;;16.40;83.30;;;;;;4861559;29;20360;-91
2023/06/28 12:33:39;;;;;;;;;;;16.40;83.20;;;;;;4846812;29;20348;-91
2023/06/28 12:36:24;;;;;;;;;;;;;;;;;;;;;
2023/06/28 12:38:49;;;;;;;;;;;16.50;83.40;;;;;;4875526;29;19935;-91
2023/06/28 12:41:18;;;;;;;;;;;16.50;83.50;;;;;;4861329;29;19935;-91
2023/06/28 12:43:56;;;;;;;;;;;16.50;83.40;;;;;;4859893;29;19935;-91
2023/06/28 12:46:30;;;;;;;;;;;16.50;83.70;;;;;;4855092;29;20017;-91
2023/06/28 12:49:04;;;;;;;;;;;16.50;83.60;;;;;;4858933;29;19933;-90
2023/06/28 12:51:30;;;;;;;;;;;16.50;83.70;;;;;;4861945;29;19946;-91
2023/06/28 12:53:58;;;;;;;;;;;16.50;83.90;;;;;;4855964;29;19983;-92
2023/06/28 12:56:26;;;;;;;;;;;16.60;83.80;;;;;;4855482;29;19927;-92
2023/06/28 12:58:52;;;;;;;;;;;16.60;83.70;;;;;;4839717;29;19935;-92
2023/06/28 13:01:18;;;;;;;;;;;16.60;83.70;;;;;;4860382;29;19935;-90
2023/06/28 13:03:44;;;;;;;;;;;16.60;83.60;;;;;;4856417;29;19928;-91
2023/06/28 13:06:10;;;;;;;;;;;16.60;83.90;;;;;;4850566;29;19932;-89
2023/06/28 13:08:36;;;;;;;;;;;16.70;83.60;;;;;;4862309;29;20390;-89
2023/06/28 13:11:01;;;;;;;;;;;16.70;83.60;;;;;;4865125;29;19932;-90
2023/06/28 13:13:27;;;;;;;;;;;16.70;83.30;;;;;;4857219;29;20580;-89
2023/06/28 13:15:53;;;;;;;;;;;16.70;83.20;;;;;;4868597;29;19936;-89
2023/06/28 13:18:19;;;;;;;;;;;16.70;83.20;;;;;;4856131;29;19931;-91
2023/06/28 13:20:44;;;;;;;;;;;16.70;83.00;;;;;;4879667;29;20022;-90
2023/06/28 13:23:13;;;;;;;;;;;16.70;83.20;;;;;;4865404;29;19938;-90
2023/06/28 13:25:39;;;;;;;;;;;16.70;83.10;;;;;;4848074;29;20391;-90
2023/06/28 13:28:05;;;;;;;;;;;16.70;83.10;;;;;;4842858;29;19974;-90
2023/06/28 13:30:30;;;;;;;;;;;16.70;83.20;;;;;;4855274;29;19927;-90
2023/06/28 13:32:57;;;;;;;;;;;16.80;83.20;;;;;;4867022;29;21411;-90
2023/06/28 13:35:23;;;;;;;;;;;16.80;82.90;;;;;;4848283;29;19951;-90
2023/06/28 13:37:49;;;;;;;;;;;16.80;82.80;;;;;;4859476;29;19928;-92
2023/06/28 13:40:18;;;;;;;;;;;16.80;82.80;;;;;;4865121;29;19974;-90
2023/06/28 13:42:45;;;;;;;;;;;16.80;83.00;;;;;;4846226;29;19928;-89
2023/06/28 13:45:12;;;;;;;;;;;16.80;82.90;;;;;;4865136;29;19983;-90
2023/06/28 13:47:37;;;;;;;;;;;16.80;82.80;;;;;;4859305;29;19970;-91
2023/06/28 13:50:06;;;;;;;;;;;16.80;82.90;;;;;;4861952;29;20090;-90
2023/06/28 13:52:32;;;;;;;;;;;16.80;82.80;;;;;;4853195;29;19927;-91
2023/06/28 13:55:05;;;;;;;;;;;16.80;82.70;;;;;;4850258;29;21013;-90
2023/06/28 13:57:31;;;;;;;;;;;16.80;82.80;;;;;;4843154;29;20427;-90
2023/06/28 13:59:57;;;;;;;;;;;16.90;83.00;;;;;;4863607;29;19942;-90
2023/06/28 14:02:24;;;;;;;;;;;16.90;82.90;;;;;;4863507;29;19958;-91
2023/06/28 14:04:49;;;;;;;;;;;16.90;82.90;;;;;;4865358;29;19931;-90
2023/06/28 14:07:18;;;;;;;;;;;17.00;83.00;;;;;;4843218;29;20392;-90
2023/06/28 14:09:43;;;;;;;;;;;17.00;83.10;;;;;;4864825;29;19943;-89
2023/06/28 14:12:09;;;;;;;;;;;17.00;83.00;;;;;;4860422;29;19936;-90
2023/06/28 14:15:07;;;;;;;;;;;17.00;82.80;;;;;;4854318;29;20084;-95
2023/06/28 14:17:41;;;;;;;;;;;17.00;82.70;;;;;;4830504;29;19974;-91
2023/06/28 14:23:58;;;;;;;;;;;17.00;83.00;;;;;;4890847;29;19934;-91
2023/06/28 14:29:45;;;;;;;;;;;17.00;83.40;;;;;;4835461;29;19979;-91
2023/06/28 14:32:26;;;;;;;;;;;;;;;;;;;;;
2023/06/28 14:34:57;;;;;;;;;;;17.00;83.70;;;;;;4869684;29;20059;-91
2023/06/28 14:37:23;;;;;;;;;;;17.00;83.80;;;;;;4863227;29;20024;-91
2023/06/28 14:39:49;;;;;;;;;;;17.00;83.90;;;;;;4865061;29;20898;-91
2023/06/28 14:42:15;;;;;;;;;;;17.00;84.00;;;;;;4838642;29;20333;-93
2023/06/28 14:44:40;;;;;;;;;;;17.00;84.00;;;;;;4850774;29;19927;-92
2023/06/28 14:47:06;;;;;;;;;;;17.00;84.10;;;;;;4858225;29;20515;-93
2023/06/28 14:49:32;;;;;;;;;;;17.00;84.40;;;;;;4867708;29;21388;-92
2023/06/28 14:51:58;;;;;;;;;;;17.00;84.50;;;;;;4868944;29;20383;-94
2023/06/28 14:54:23;;;;;;;;;;;17.10;84.60;;;;;;4863197;29;19938;-93
2023/06/28 14:56:49;;;;;;;;;;;17.10;84.40;;;;;;4862705;29;20301;-92
2023/06/28 14:59:15;;;;;;;;;;;17.00;84.50;;;;;;4880283;29;20009;-91
2023/06/28 15:01:40;;;;;;;;;;;17.10;84.60;;;;;;4866637;29;19935;-91
2023/06/28 15:04:06;;;;;;;;;;;17.20;84.60;;;;;;4845017;29;20373;-93
2023/06/28 15:06:32;;;;;;;;;;;17.10;84.50;;;;;;4880020;29;19923;-91
2023/06/28 15:08:57;;;;;;;;;;;17.10;84.30;;;;;;4863101;29;19971;-92
2023/06/28 15:11:23;;;;;;;;;;;17.10;84.40;;;;;;4864544;29;19982;-91
2023/06/28 15:13:49;;;;;;;;;;;17.10;84.50;;;;;;4865174;29;19953;-94
2023/06/28 15:16:14;;;;;;;;;;;17.10;84.50;;;;;;4863751;29;19994;-92
2023/06/28 15:18:40;;;;;;;;;;;17.20;84.50;;;;;;4860965;29;19931;-93
2023/06/28 15:21:06;;;;;;;;;;;17.20;84.50;;;;;;4868121;29;19990;-92
2023/06/28 15:23:31;;;;;;;;;;;17.20;84.50;;;;;;4857449;29;19963;-95
2023/06/28 15:25:57;;;;;;;;;;;17.20;84.70;;;;;;4853558;29;19942;-94
2023/06/28 15:28:23;;;;;;;;;;;17.20;84.30;;;;;;4863631;29;19959;-95
2023/06/28 15:30:55;;;;;;;;;;;17.20;84.30;;;;;;4873402;29;20041;-94
2023/06/28 15:33:44;;;;;;;;;;;17.20;84.50;;;;;;4869325;29;19942;-95
2023/06/28 15:36:12;;;;;;;;;;;17.20;84.40;;;;;;4899992;29;21307;-92
2023/06/28 15:38:37;;;;;;;;;;;17.20;84.50;;;;;;4861339;29;19990;-92
2023/06/28 15:41:29;;;;;;;;;;;17.20;84.60;;;;;;4870035;29;19931;-96
2023/06/28 15:43:58;;;;;;;;;;;17.20;84.60;;;;;;4854979;29;20285;-90
2023/06/28 15:46:56;;;;;;;;;;;17.20;84.60;;;;;;4885430;29;19934;-93
2023/06/28 15:49:37;;;;;;;;;;;;;;;;;;;;;
2023/06/28 15:52:08;;;;;;;;;;;17.20;84.60;;;;;;4870385;29;20284;-90
2023/06/28 17:01:24;;;;;;;;;;;17.50;84.70;;;;;;3497079;24;20900;31
2023/06/28 17:03:57;;;;;;;;;;;17.50;84.60;;;;;;4704066;30;20282;-95
2023/06/28 17:06:32;;;;;;;;;;;17.50;84.70;;;;;;4709547;30;19952;-94
2023/06/28 17:08:57;;;;;;;;;;;17.50;84.70;;;;;;4684911;30;20116;-96
2023/06/28 17:11:25;;;;;;;;;;;17.50;84.80;;;;;;4700708;30;20053;-96
2023/06/28 17:13:50;;;;;;;;;;;17.60;84.60;;;;;;4699572;30;19939;-93
2023/06/28 17:16:16;;;;;;;;;;;17.60;84.60;;;;;;4700333;30;20293;-92
2023/06/28 17:18:42;;;;;;;;;;;17.60;84.70;;;;;;4698250;30;20014;-95
2023/06/28 17:21:07;;;;;;;;;;;17.60;84.70;;;;;;4700561;30;19981;-95
2023/06/28 17:23:33;;;;;;;;;;;17.60;84.60;;;;;;4688099;30;20446;-93
2023/06/28 17:25:59;;;;;;;;;;;17.70;84.50;;;;;;4702211;30;19942;-95
2023/06/28 17:28:25;;;;;;;;;;;17.70;84.40;;;;;;4698079;30;20294;-96
2023/06/28 17:30:53;;;;;;;;;;;17.70;84.50;;;;;;4703922;30;19942;-95
2023/06/28 17:33:19;;;;;;;;;;;17.70;84.30;;;;;;4704190;30;19931;-95
2023/06/28 17:35:52;;;;;;;;;;;17.80;84.20;;;;;;4687270;30;19996;-93
2023/06/28 17:38:18;;;;;;;;;;;17.80;84.30;;;;;;4695633;30;19935;-94
2023/06/28 17:40:43;;;;;;;;;;;17.80;84.20;;;;;;4701722;30;20361;-94
2023/06/28 17:43:11;;;;;;;;;;;17.80;84.20;;;;;;4697135;30;19992;-95
2023/06/28 17:45:37;;;;;;;;;;;17.80;84.20;;;;;;4700640;30;19931;-94
2023/06/28 17:48:03;;;;;;;;;;;17.80;84.30;;;;;;4695701;30;19957;-95
2023/06/28 17:50:29;;;;;;;;;;;17.80;84.20;;;;;;4709863;30;20005;-94
2023/06/28 17:52:55;;;;;;;;;;;17.80;84.20;;;;;;4710686;30;19989;-94
2023/06/28 17:55:21;;;;;;;;;;;17.80;84.10;;;;;;4693797;30;20373;-94
2023/06/28 17:57:47;;;;;;;;;;;17.90;84.10;;;;;;4697377;30;19931;-93
2023/06/28 18:00:13;;;;;;;;;;;17.90;84.00;;;;;;4697738;30;20001;-94
2023/06/28 18:02:38;;;;;;;;;;;18.00;84.00;;;;;;4710682;30;19938;-94